AirNav   Air Wisconsin Up To $57,000 Bonus
 
 644 users online  

9PS0 Zokaites Heliport
Wexford, Pennsylvania, USA

GOING TO WEXFORD?


FAA INFORMATION EFFECTIVE 02 JANUARY 2020

Location

FAA Identifier: 9PS0
Lat/Long: 40-36-32.2420N 080-01-58.9050W
40-36.537367N 080-01.981750W
40.6089561,-80.0330292
(estimated)
Elevation: 1268 ft. / 386 m (estimated)
Variation: 08W (1985)
From city: 1 mile W of WEXFORD, PA
Time zone: UTC -5 (UTC -4 during Daylight Saving Time)
Zip code: 15090

Heliport Operations

Heliport use: Private use. Permission required prior to landing
Activation date: 04/1988
Control tower: no
ARTCC: CLEVELAND CENTER
FSS: ALTOONA FLIGHT SERVICE STATION
Attendance: UNATNDD
Wind indicator: yes
Segmented circle: no

Heliport Communications

WX AWOS-A at 42PN (9 nm S): PHONE 412-442-2213
WX AWOS-3PT at BTP (11 nm N): 121.450 (724-586-6434)
WX ASOS at PIT (12 nm SW): PHONE 412-472-0145
WX AWOS-3PT at PJC (13 nm NW): 118.45 (724-452-5304)
WX ASOS at AGC (16 nm S): 120.55 (412-466-8968)
WX AWOS-3PT at BVI (19 nm NW): 118.35 (724-843-1024)

Nearby radio navigation aids

VOR radial/distance  VOR name  Freq  Var
EWCr156/15.3ELLWOOD CITY VOR/DME115.8008W
AGCr010/19.8ALLEGHENY VOR/DME110.0009W
HLGr056/32.2WHEELING VOR/DME112.2007W

 
NDB name  Hdg/Dist  Freq  Var  ID
CASTLE154/30.327209WUCP ..- -.-. .--.

Heliport Services

Runway Information

Helipad H1

Dimensions: 60 x 60 ft. / 18 x 18 m
Surface: turf
Traffic pattern: leftleft

Heliport Ownership and Management from official FAA records

Ownership: Privately-owned
Owner: FRANK R. ZOKAITES
375 GOLFSIDE DR
WEXFORD, PA 15090
Phone 412-935-5257

Heliport Operational Statistics

Aircraft based on the field: 1
Helicopters: 1
    

Additional Remarks

A52-H1 30' BLDG 80' SOUTH
FOR CD CTC PITTSBURGH APCH AT 412-472-5591

Instrument Procedures

There are no published instrument procedures at 9PS0.

Some nearby airports with instrument procedures:

KBTP - Pittsburgh/Butler Regional Airport (11 nm N)
KPIT - Pittsburgh International Airport (12 nm SW)
KPJC - Zelienople Municipal Airport (13 nm NW)
KAGC - Allegheny County Airport (16 nm S)
KBVI - Beaver County Airport (19 nm NW)
 
Loc | Ops | Rwys | IFR | FBO | Links
Com | Nav | Svcs | Stats | Notes
Area around 9PS0 (Zokaites Heliport)
 
Road maps at: MapQuest Bing Google
 
Aerial photo
No photo
 
Sectional chart

 
Airport distance calculator
Flying to Zokaites Heliport? Find the distance to fly.

From to 9PS0

Sunrise and sunset
Times for 19-Jan-2020
 Local
(UTC-5)
 Zulu
(UTC)
Morning civil twilight07:1112:11
Sunrise07:4112:41
Sunset17:2122:21
Evening civil twilight17:5122:51

Current date and time
Zulu (UTC)  19-Jan-2020 10:40:15
Local (UTC-5)  19-Jan-2020 05:40:15
 
METAR
KBTP 
10nm N 
190956Z AUTO 26011G17KT 9SM -SN OVC024 M03/M07 A2983 RMK AO2 PK WND 26031/0902 SLP119 P0000 T10281067 FZRANO
KPIT 
12nm SW 
190951Z 28017G23KT 9SM -SN OVC018 M02/M07 A2984 RMK AO2 SLP122 P0000 T10221067
KPJC 
13nm NW 
191016Z AUTO 26011G17KT 7SM -SN OVC027 M02/M06 A2986 RMK AO2
KAGC 
16nm S 
190953Z 27012G26KT 10SM BKN026 OVC032 M02/M06 A2984 RMK AO2 PK WND 27030/0911 SLP117 T10171061
KBVI 
19nm NW 
191016Z AUTO 26013G19KT 5SM -SN OVC022 M03/M07 A2986 RMK AO2 T10271066
TAF
KPIT 
12nm SW 
190856Z 1909/2012 28014G27KT P6SM -SHSN OVC018 FM191300 27012G22KT P6SM OVC022 FM200200 27010G20KT 4SM -SHSN OVC015 FM200700 28008G16KT P6SM VCSH OVC020 FM201100 29006KT P6SM BKN025
KAGC 
16nm S 
191002Z 1910/2006 28013G26KT P6SM -SHSN OVC022 FM191300 27012G22KT P6SM OVC025 FM200200 27010G20KT 4SM -SHSN OVC015 FM200500 28008G16KT P6SM VCSH OVC020
KBVI 
19nm NW 
191002Z 1910/2006 27013G25KT P6SM -SHSN OVC022 FM191300 27012G22KT P6SM OVC025 FM200200 27010G20KT 4SM -SHSN OVC015 FM200500 28008G16KT P6SM VCSH OVC020
NOTAMs
Click for the latest NOTAMs
NOTAMs are issued by the DoD/FAA and will open in a separate window not controlled by AirNav.

 

 
 

Would you like to see your business listed on this page?

 If your business provides an interesting product or service to pilots, flight crews, aircraft, or users of the Zokaites Heliport, you should consider listing it here.  To start the listing process, click on the button below
 
Add a business
 

Other Pages about Zokaites Heliport

Update a link
 
Copyright © AirNav, LLC. All rights reserved. Privacy Policy  Contact